createdAt,value
2022-11-29T00:01:31.143Z,84.31
2022-11-29T00:03:58.614Z,84.50
2022-11-29T00:06:28.417Z,84.81
2022-11-29T00:08:57.213Z,84.70
2022-11-29T00:11:46.106Z,84.63
2022-11-29T00:14:17.098Z,84.47
2022-11-29T00:16:44.248Z,83.78
2022-11-29T00:19:13.564Z,83.77
2022-11-29T00:21:40.533Z,84.01
2022-11-29T00:24:08.139Z,83.75
2022-11-29T00:26:37.231Z,83.98
2022-11-29T00:29:05.011Z,83.60
2022-11-29T00:31:33.064Z,84.35
2022-11-29T00:34:06.673Z,84.03
2022-11-29T00:36:35.225Z,83.94
2022-11-29T00:39:04.399Z,82.85
2022-11-29T00:41:32.269Z,82.59
2022-11-29T00:43:59.280Z,83.49
2022-11-29T00:46:26.260Z,82.49
2022-11-29T00:48:53.273Z,82.90
2022-11-29T00:51:20.349Z,83.31
2022-11-29T00:53:47.526Z,82.85
2022-11-29T00:56:14.674Z,83.08
2022-11-29T00:58:43.673Z,83.09
2022-11-29T01:01:11.907Z,83.74
2022-11-29T01:03:39.169Z,84.35
2022-11-29T01:06:11.829Z,84.76
2022-11-29T01:08:39.491Z,85.00
2022-11-29T01:11:14.933Z,84.74
2022-11-29T01:13:42.533Z,85.97
2022-11-29T01:16:10.355Z,86.31
2022-11-29T01:18:38.151Z,86.41
2022-11-29T01:21:08.701Z,87.13
2022-11-29T01:23:37.043Z,87.52
2022-11-29T01:26:15.036Z,86.77
2022-11-29T01:28:42.858Z,86.37
2022-11-29T01:31:18.140Z,86.97
2022-11-29T01:33:46.106Z,87.86
2022-11-29T01:36:13.795Z,88.19
2022-11-29T01:38:42.637Z,88.54
2022-11-29T01:41:14.883Z,88.14
2022-11-29T01:44:17.987Z,88.39
2022-11-29T01:46:46.771Z,88.33
2022-11-29T01:49:42.102Z,88.42
2022-11-29T01:52:13.734Z,88.11
2022-11-29T01:54:48.521Z,88.74
2022-11-29T01:57:16.475Z,88.64
2022-11-29T01:59:48.800Z,88.77
2022-11-29T02:02:24.903Z,88.91
2022-11-29T02:04:52.537Z,88.39
2022-11-29T02:07:19.678Z,88.49
2022-11-29T02:09:46.779Z,88.81
2022-11-29T02:12:38.738Z,88.13
2022-11-29T02:15:33.772Z,88.62
2022-11-29T02:18:15.698Z,88.69
2022-11-29T02:21:16.384Z,88.79
2022-11-29T02:24:42.179Z,88.59
2022-11-29T02:27:48.050Z,88.76
2022-11-29T02:30:38.920Z,89.88
2022-11-29T02:33:58.208Z,89.89
2022-11-29T03:14:57.380Z,89.02
2022-11-29T03:21:27.568Z,89.18
2022-11-29T03:24:00.940Z,89.28
2022-11-29T03:26:41.637Z,89.27
2022-11-29T03:29:19.348Z,88.67
2022-11-29T03:32:34.236Z,88.53
2022-11-29T03:35:25.798Z,88.43
2022-11-29T03:38:31.810Z,88.64
2022-11-29T03:41:23.289Z,87.31
2022-11-29T03:44:13.433Z,87.05
2022-11-29T03:47:03.559Z,86.64
2022-11-29T03:49:45.151Z,85.36
2022-11-29T03:52:37.823Z,85.47
2022-11-29T03:55:46.704Z,85.73
2022-11-29T03:58:49.466Z,85.72
2022-11-29T04:02:00.376Z,85.99
2022-11-29T04:05:10.196Z,86.59
2022-11-29T04:08:27.829Z,86.68
2022-11-29T04:11:37.312Z,86.29
2022-11-29T04:14:31.049Z,85.66
2022-11-29T04:17:56.155Z,85.37
2022-11-29T04:21:13.231Z,85.06
2022-11-29T04:24:24.847Z,84.74
2022-11-29T04:27:10.420Z,85.14
2022-11-29T04:30:14.347Z,84.72
2022-11-29T04:48:59.116Z,83.60
2022-11-29T04:52:09.826Z,83.49
2022-11-29T04:54:55.757Z,83.60
2022-11-29T04:57:47.745Z,82.65
2022-11-29T05:00:21.385Z,83.08
2022-11-29T05:03:31.609Z,83.10
2022-11-29T05:06:15.800Z,81.73
2022-11-29T05:09:19.615Z,81.03
2022-11-29T05:12:45.469Z,80.20
2022-11-29T05:15:56.291Z,80.16
2022-11-29T05:18:53.772Z,81.01
2022-11-29T05:21:48.231Z,81.54
2022-11-29T05:24:50.835Z,82.11
2022-11-29T05:56:22.879Z,83.22
2022-11-29T05:58:56.127Z,83.63
2022-11-29T06:01:30.286Z,83.17
2022-11-29T06:04:23.668Z,83.80
2022-11-29T06:07:03.541Z,83.88
2022-11-29T06:10:06.887Z,83.43
2022-11-29T06:12:38.141Z,84.08
2022-11-29T06:15:23.706Z,83.78
2022-11-29T06:18:11.289Z,83.29
2022-11-29T06:21:08.505Z,83.50
2022-11-29T06:23:48.709Z,83.30
2022-11-29T06:26:47.767Z,82.23
2022-11-29T06:33:18.223Z,81.99
2022-11-29T06:36:28.374Z,82.18
2022-11-29T06:38:55.883Z,81.89
2022-11-29T06:41:24.604Z,81.75
2022-11-29T06:43:52.302Z,81.27
2022-11-29T06:46:53.251Z,80.85
2022-11-29T06:50:03.578Z,81.09
2022-11-29T06:53:22.327Z,81.77
2022-11-29T06:56:17.770Z,80.49
2022-11-29T06:59:24.933Z,80.45
2022-11-29T07:02:02.124Z,81.00
2022-11-29T07:05:12.996Z,81.25
2022-11-29T07:07:42.075Z,81.21
2022-11-29T07:10:17.929Z,81.29
2022-11-29T07:12:47.823Z,81.30
2022-11-29T07:15:20.502Z,80.09
2022-11-29T07:18:07.542Z,78.96
2022-11-29T07:21:42.346Z,79.56
2022-11-29T07:24:43.693Z,81.12
2022-11-29T07:27:33.592Z,81.31
2022-11-29T07:30:21.851Z,81.23
2022-11-29T07:33:20.855Z,80.63
2022-11-29T07:35:59.836Z,80.38
2022-11-29T07:39:19.136Z,79.95
2022-11-29T07:42:16.757Z,79.59
2022-11-29T07:45:12.633Z,79.49
2022-11-29T07:47:39.638Z,79.63
2022-11-29T07:50:07.833Z,78.47
2022-11-29T07:52:34.991Z,76.94
2022-11-29T07:55:02.504Z,77.04
2022-11-29T07:57:29.529Z,77.41
2022-11-29T07:59:58.944Z,77.47
2022-11-29T08:02:30.909Z,77.78
2022-11-29T08:04:58.740Z,77.77
2022-11-29T08:07:26.042Z,77.48
2022-11-29T08:09:53.120Z,76.51
2022-11-29T08:12:20.377Z,77.14
2022-11-29T08:14:47.604Z,75.60
2022-11-29T08:17:14.862Z,75.09
2022-11-29T08:19:41.892Z,75.80
2022-11-29T08:22:08.908Z,76.66
2022-11-29T08:24:35.957Z,75.98
2022-11-29T08:27:03.093Z,75.31
2022-11-29T08:29:30.355Z,74.72
2022-11-29T08:31:58.600Z,74.23
2022-11-29T08:34:26.206Z,73.67
2022-11-29T08:36:56.670Z,74.80
2022-11-29T08:39:23.738Z,74.53
2022-11-29T08:41:50.791Z,75.54
2022-11-29T08:44:18.787Z,75.29
2022-11-29T08:47:04.855Z,75.95
2022-11-29T08:49:32.166Z,76.60
2022-11-29T08:52:17.975Z,77.31
2022-11-29T08:54:45.223Z,76.82
2022-11-29T08:59:59.767Z,76.66
2022-11-29T09:02:26.955Z,75.73
2022-11-29T09:04:54.066Z,75.93
2022-11-29T09:07:21.160Z,75.56
2022-11-29T09:09:49.031Z,74.94
2022-11-29T09:12:16.209Z,74.36
2022-11-29T09:14:43.584Z,74.13
2022-11-29T12:46:30.315Z,68.73
2022-11-29T12:49:37.868Z,68.31
2022-11-29T12:52:29.454Z,68.08
2022-11-29T12:55:07.478Z,67.33
2022-11-29T12:57:46.195Z,67.70
2022-11-29T13:00:20.066Z,67.59
2022-11-29T13:03:04.253Z,68.00
2022-11-29T13:06:05.089Z,68.09
2022-11-29T13:09:34.393Z,68.14
2022-11-29T13:12:21.226Z,68.81
2022-11-29T13:15:21.713Z,69.58
2022-11-29T13:18:23.069Z,70.43
2022-11-29T13:21:09.925Z,70.76
2022-11-29T13:24:10.309Z,71.17
2022-11-29T13:26:40.996Z,71.82
2022-11-29T13:29:15.092Z,69.78
2022-11-29T13:31:42.881Z,69.01
2022-11-29T13:34:22.017Z,69.88
2022-11-29T13:37:27.427Z,71.62
2022-11-29T13:40:23.709Z,71.61
2022-11-29T13:43:35.308Z,71.16
2022-11-29T13:46:30.612Z,71.96
2022-11-29T13:48:57.933Z,71.80
2022-11-29T13:51:34.631Z,71.68
2022-11-29T13:54:05.150Z,71.46
2022-11-29T13:56:48.084Z,71.52
2022-11-29T13:59:34.102Z,71.87
2022-11-29T14:02:01.622Z,71.62
2022-11-29T14:04:37.739Z,71.58
2022-11-29T14:07:11.503Z,71.65
2022-11-29T14:09:59.295Z,71.69
2022-11-29T14:12:57.253Z,71.20
2022-11-29T14:15:31.310Z,71.36
2022-11-29T14:18:09.182Z,70.91
2022-11-29T14:20:54.269Z,71.67
2022-11-29T14:23:33.739Z,73.38
2022-11-29T14:26:28.025Z,74.63
2022-11-29T14:28:56.059Z,75.40
2022-11-29T14:31:53.391Z,75.21
2022-11-29T14:34:28.260Z,76.08
2022-11-29T14:37:06.821Z,75.94
2022-11-29T14:39:55.290Z,76.00
2022-11-29T14:42:25.739Z,76.38
2022-11-29T14:45:04.943Z,76.14
2022-11-29T14:47:39.095Z,75.97
2022-11-29T14:50:10.737Z,75.88
2022-11-29T14:52:51.678Z,76.06
2022-11-29T14:55:39.138Z,75.59
2022-11-29T14:58:18.268Z,75.52
2022-11-29T15:00:55.370Z,74.52
2022-11-29T15:03:45.210Z,73.71
2022-11-29T15:06:23.390Z,73.63
2022-11-29T15:09:16.965Z,73.90
2022-11-29T15:12:14.786Z,74.29
2022-11-29T15:15:20.466Z,74.83
2022-11-29T15:18:46.143Z,75.14
2022-11-29T15:21:58.395Z,74.74
2022-11-29T15:24:28.673Z,74.84
2022-11-29T15:26:58.632Z,75.43
2022-11-29T15:29:26.964Z,75.69
2022-11-29T15:31:56.847Z,76.02
2022-11-29T15:34:37.136Z,75.80
2022-11-29T15:37:04.841Z,74.95
2022-11-29T15:39:34.743Z,75.10
2022-11-29T15:42:13.643Z,75.96
2022-11-29T15:44:48.390Z,74.70
2022-11-29T15:47:26.806Z,75.03
2022-11-29T15:49:54.734Z,74.65
2022-11-29T15:52:29.806Z,74.85
2022-11-29T15:55:04.179Z,74.84
2022-11-29T15:57:46.231Z,74.57
2022-11-29T16:00:20.559Z,75.28
2022-11-29T16:02:54.342Z,75.80
2022-11-29T16:05:31.362Z,76.26
2022-11-29T16:08:17.938Z,76.63
2022-11-29T16:10:50.619Z,75.67
2022-11-29T16:13:34.062Z,76.39
2022-11-29T16:16:24.993Z,76.59
2022-11-29T16:18:52.066Z,76.52
2022-11-29T16:21:39.477Z,76.49
2022-11-29T16:24:19.728Z,75.36
2022-11-29T16:26:49.852Z,75.93
2022-11-29T16:29:45.382Z,76.18
2022-11-29T16:32:15.166Z,76.18
2022-11-29T16:34:43.965Z,76.36
2022-11-29T16:37:19.000Z,77.48
2022-11-29T16:39:49.581Z,78.11
2022-11-29T16:42:43.412Z,78.48
2022-11-29T16:45:39.454Z,79.43
2022-11-29T16:48:30.523Z,79.73
2022-11-29T16:51:42.688Z,80.20
2022-11-29T16:54:27.976Z,80.98
2022-11-29T16:56:57.452Z,81.68
2022-11-29T16:59:28.358Z,82.47
2022-11-29T17:01:57.072Z,83.26
2022-11-29T17:04:25.152Z,83.04
2022-11-29T17:06:56.809Z,84.15
2022-11-29T17:09:27.527Z,83.84
2022-11-29T17:11:56.280Z,84.66
2022-11-29T17:14:23.412Z,84.78
2022-11-29T17:16:51.960Z,85.15
2022-11-29T17:19:22.157Z,85.19
2022-11-29T17:21:49.668Z,85.45
2022-11-29T17:24:19.779Z,86.17
2022-11-29T17:26:47.098Z,86.34
2022-11-29T17:29:15.944Z,86.98
2022-11-29T17:31:44.374Z,86.84
2022-11-29T17:34:11.681Z,87.53
2022-11-29T17:36:38.827Z,87.82
2022-11-29T17:39:06.423Z,88.08
2022-11-29T17:41:33.947Z,88.54
2022-11-29T17:44:01.320Z,89.25
2022-11-29T17:46:34.254Z,89.09
2022-11-29T17:49:03.204Z,88.92
2022-11-29T17:54:17.729Z,89.50
2022-11-29T17:56:44.632Z,89.15
2022-11-29T17:59:11.606Z,89.49
2022-11-29T18:01:38.850Z,90.05
2022-11-29T18:04:08.540Z,90.05
2022-11-29T18:06:38.184Z,90.22
2022-11-29T18:09:07.120Z,90.76
2022-11-29T18:11:46.397Z,90.54
2022-11-29T18:14:16.633Z,90.25
2022-11-29T18:16:45.820Z,90.77
2022-11-29T18:19:15.834Z,90.66
2022-11-29T18:21:43.019Z,91.09
2022-11-29T18:24:10.389Z,91.48
2022-11-29T18:26:38.698Z,90.90
2022-11-29T18:29:06.494Z,89.95
2022-11-29T18:31:35.668Z,90.11
2022-11-29T18:34:07.237Z,91.36
2022-11-29T18:36:37.558Z,91.62
2022-11-29T18:39:08.821Z,91.99
2022-11-29T18:41:36.264Z,92.27
2022-11-29T18:44:09.234Z,92.62
2022-11-29T18:46:38.348Z,92.51
2022-11-29T18:49:07.845Z,92.19
2022-11-29T18:51:35.987Z,91.78
2022-11-29T18:54:06.909Z,92.10
2022-11-29T18:56:35.893Z,92.44
2022-11-29T18:59:06.334Z,91.65
2022-11-29T19:01:35.702Z,91.32
2022-11-29T19:04:02.757Z,91.26
2022-11-29T19:06:38.918Z,89.60
2022-11-29T19:09:08.171Z,89.25
2022-11-29T19:11:35.229Z,89.64
2022-11-29T19:14:05.491Z,90.15
2022-11-29T19:16:34.750Z,89.37
2022-11-29T19:19:02.622Z,90.29
2022-11-29T19:21:32.110Z,90.40
2022-11-29T19:24:01.927Z,91.22
2022-11-29T19:26:30.911Z,91.37
2022-11-29T19:29:00.098Z,91.93
2022-11-29T19:31:28.249Z,91.98
2022-11-29T19:33:56.650Z,91.54
2022-11-29T19:36:28.794Z,91.61
2022-11-29T19:38:56.341Z,91.13
2022-11-29T19:41:29.661Z,91.22
2022-11-29T19:43:58.328Z,91.30
2022-11-29T19:46:28.624Z,91.48
2022-11-29T19:48:57.382Z,91.53
2022-11-29T19:51:25.612Z,92.22
2022-11-29T19:53:54.407Z,92.20
2022-11-29T19:56:22.627Z,92.32
2022-11-29T19:58:50.709Z,92.94
2022-11-29T20:01:23.225Z,92.98
2022-11-29T20:03:50.807Z,92.99
2022-11-29T20:06:20.196Z,92.54
2022-11-29T20:08:47.703Z,93.05
2022-11-29T20:11:20.578Z,93.80
2022-11-29T20:13:53.811Z,93.03
2022-11-29T20:16:22.323Z,92.18
2022-11-29T20:18:51.300Z,91.51
2022-11-29T20:21:22.389Z,91.45
2022-11-29T20:23:49.839Z,91.89
2022-11-29T20:26:20.019Z,91.78
2022-11-29T20:28:48.108Z,91.42
2022-11-29T20:31:17.945Z,91.91
2022-11-29T20:33:46.705Z,92.31
2022-11-29T20:36:43.623Z,92.28
2022-11-29T20:39:41.869Z,92.67
2022-11-29T20:42:55.223Z,93.16
2022-11-29T20:45:24.232Z,93.60
2022-11-29T20:47:58.845Z,93.64
2022-11-29T20:50:28.707Z,94.11
2022-11-29T20:53:30.061Z,94.29
2022-11-29T20:55:57.167Z,94.20
2022-11-29T20:58:27.066Z,94.02
2022-11-29T21:00:54.997Z,93.79
2022-11-29T21:03:22.952Z,93.43
2022-11-29T21:05:50.567Z,93.19
2022-11-29T21:08:21.213Z,93.09
2022-11-29T21:10:50.057Z,93.20
2022-11-29T21:13:19.017Z,93.88
2022-11-29T21:15:46.963Z,94.22
2022-11-29T21:18:24.931Z,94.16
2022-11-29T21:21:18.145Z,95.03
2022-11-29T21:23:55.530Z,94.91
2022-11-29T21:26:31.818Z,95.44
2022-11-29T21:29:16.446Z,95.43
2022-11-29T21:31:44.033Z,95.45
2022-11-29T21:34:11.291Z,95.43
2022-11-29T21:36:39.139Z,95.33
2022-11-29T21:39:07.894Z,96.11
2022-11-29T21:41:34.876Z,95.99
2022-11-29T21:44:07.081Z,96.19
2022-11-29T21:46:35.249Z,96.48
2022-11-29T21:49:02.432Z,96.58
2022-11-29T21:51:29.383Z,96.52
2022-11-29T21:53:56.491Z,96.13
2022-11-29T21:56:23.656Z,96.24
2022-11-29T21:58:50.567Z,96.12
2022-11-29T22:01:20.369Z,95.68
2022-11-29T22:03:47.501Z,95.89
2022-11-29T22:06:18.802Z,96.20
2022-11-29T22:08:45.816Z,96.85
2022-11-29T22:11:16.072Z,97.30
2022-11-29T22:14:02.802Z,96.38
2022-11-29T22:16:30.156Z,96.97
2022-11-29T22:18:57.334Z,97.42
2022-11-29T22:21:24.369Z,97.57
2022-11-29T22:23:52.767Z,97.37
2022-11-29T22:26:21.639Z,97.45
2022-11-29T22:28:48.823Z,97.22
2022-11-29T22:31:16.112Z,97.22
2022-11-29T22:33:43.288Z,97.27
2022-11-29T22:36:12.872Z,97.30
2022-11-29T22:38:40.708Z,96.55
2022-11-29T22:41:10.530Z,97.12
2022-11-29T22:43:38.784Z,97.17
2022-11-29T22:46:20.263Z,96.58
2022-11-29T22:48:49.346Z,95.78
2022-11-29T22:51:19.508Z,95.68
2022-11-29T22:53:54.853Z,94.86
2022-11-29T22:56:23.158Z,95.25
2022-11-29T22:58:50.351Z,95.34
2022-11-29T23:01:23.065Z,95.25
2022-11-29T23:03:55.054Z,94.77
2022-11-29T23:06:25.325Z,94.20
2022-11-29T23:08:54.378Z,94.57
2022-11-29T23:11:24.975Z,93.99
2022-11-29T23:13:52.020Z,93.90
2022-11-29T23:16:22.646Z,94.27
2022-11-29T23:18:50.361Z,94.06
2022-11-29T23:21:38.753Z,92.45
2022-11-29T23:24:06.563Z,93.11
2022-11-29T23:26:40.363Z,93.29
2022-11-29T23:29:15.798Z,93.58
2022-11-29T23:31:42.974Z,94.25
2022-11-29T23:34:09.969Z,93.88
2022-11-29T23:36:37.161Z,94.34
2022-11-29T23:39:05.932Z,94.60
2022-11-29T23:41:33.690Z,94.98
2022-11-29T23:44:02.599Z,95.16
2022-11-29T23:46:29.649Z,95.45
2022-11-29T23:48:56.736Z,94.37
2022-11-29T23:51:23.691Z,94.49
2022-11-29T23:53:52.441Z,94.88
2022-11-29T23:56:20.788Z,94.85
2022-11-29T23:58:48.038Z,95.59
